sensor_id;sensor_type;location;lat;lon;timestamp;temperature;humidity
17405;DHT22;8820;54.604;18.226;2022-12-29T00:00:35;8.40;99.90
17405;DHT22;8820;54.604;18.226;2022-12-29T00:03:06;8.50;99.90
17405;DHT22;8820;54.604;18.226;2022-12-29T00:05:35;8.50;99.90
17405;DHT22;8820;54.604;18.226;2022-12-29T00:08:04;8.50;99.90
17405;DHT22;8820;54.604;18.226;2022-12-29T00:10:33;8.60;99.90
17405;DHT22;8820;54.604;18.226;2022-12-29T00:13:02;8.50;99.90
17405;DHT22;8820;54.604;18.226;2022-12-29T00:15:48;8.50;99.90
17405;DHT22;8820;54.604;18.226;2022-12-29T00:18:19;8.50;99.90
17405;DHT22;8820;54.604;18.226;2022-12-29T00:20:47;8.40;99.90
17405;DHT22;8820;54.604;18.226;2022-12-29T00:23:33;8.40;99.90
17405;DHT22;8820;54.604;18.226;2022-12-29T00:26:21;8.40;99.90
17405;DHT22;8820;54.604;18.226;2022-12-29T00:29:23;8.40;99.90
17405;DHT22;8820;54.604;18.226;2022-12-29T00:32:24;8.40;99.90
17405;DHT22;8820;54.604;18.226;2022-12-29T00:35:17;8.40;99.90
17405;DHT22;8820;54.604;18.226;2022-12-29T00:37:48;8.40;99.90
17405;DHT22;8820;54.604;18.226;2022-12-29T00:40:34;8.30;99.90
17405;DHT22;8820;54.604;18.226;2022-12-29T00:43:20;8.30;99.90
17405;DHT22;8820;54.604;18.226;2022-12-29T00:46:06;8.30;99.90
17405;DHT22;8820;54.604;18.226;2022-12-29T00:48:40;8.20;99.90
17405;DHT22;8820;54.604;18.226;2022-12-29T00:51:28;8.20;99.90
17405;DHT22;8820;54.604;18.226;2022-12-29T00:53:58;8.30;99.90
17405;DHT22;8820;54.604;18.226;2022-12-29T00:56:26;8.30;99.90
17405;DHT22;8820;54.604;18.226;2022-12-29T00:58:55;8.20;99.90
17405;DHT22;8820;54.604;18.226;2022-12-29T01:01:28;8.10;99.90
17405;DHT22;8820;54.604;18.226;2022-12-29T01:03:57;8.20;99.90
17405;DHT22;8820;54.604;18.226;2022-12-29T01:06:31;8.20;99.90
17405;DHT22;8820;54.604;18.226;2022-12-29T01:09:01;8.20;99.90
17405;DHT22;8820;54.604;18.226;2022-12-29T01:11:47;8.20;99.90
17405;DHT22;8820;54.604;18.226;2022-12-29T01:14:17;8.10;99.90
17405;DHT22;8820;54.604;18.226;2022-12-29T01:16:46;8.10;99.90
17405;DHT22;8820;54.604;18.226;2022-12-29T01:19:17;8.00;99.90
17405;DHT22;8820;54.604;18.226;2022-12-29T01:21:48;8.00;99.90
17405;DHT22;8820;54.604;18.226;2022-12-29T01:24:19;8.00;99.90
17405;DHT22;8820;54.604;18.226;2022-12-29T01:26:48;8.10;99.90
17405;DHT22;8820;54.604;18.226;2022-12-29T01:29:18;8.10;99.90
17405;DHT22;8820;54.604;18.226;2022-12-29T01:31:46;8.10;99.90
17405;DHT22;8820;54.604;18.226;2022-12-29T01:34:17;8.20;99.90
17405;DHT22;8820;54.604;18.226;2022-12-29T01:36:47;8.10;99.90
17405;DHT22;8820;54.604;18.226;2022-12-29T01:39:16;8.10;99.90
17405;DHT22;8820;54.604;18.226;2022-12-29T01:41:45;8.10;99.90
17405;DHT22;8820;54.604;18.226;2022-12-29T01:44:47;8.10;99.90
17405;DHT22;8820;54.604;18.226;2022-12-29T01:47:22;8.10;99.90
17405;DHT22;8820;54.604;18.226;2022-12-29T01:49:53;8.10;99.90
17405;DHT22;8820;54.604;18.226;2022-12-29T01:52:28;8.10;99.90
17405;DHT22;8820;54.604;18.226;2022-12-29T01:54:59;8.10;99.90
17405;DHT22;8820;54.604;18.226;2022-12-29T01:57:30;8.00;99.90
17405;DHT22;8820;54.604;18.226;2022-12-29T02:00:03;8.00;99.90
17405;DHT22;8820;54.604;18.226;2022-12-29T02:02:39;8.00;99.90
17405;DHT22;8820;54.604;18.226;2022-12-29T02:05:13;8.10;99.90
17405;DHT22;8820;54.604;18.226;2022-12-29T02:07:47;8.10;99.90
17405;DHT22;8820;54.604;18.226;2022-12-29T02:10:19;8.00;99.90
17405;DHT22;8820;54.604;18.226;2022-12-29T02:12:49;8.00;99.90
17405;DHT22;8820;54.604;18.226;2022-12-29T02:15:19;8.00;99.90
17405;DHT22;8820;54.604;18.226;2022-12-29T02:18:04;8.00;99.90
17405;DHT22;8820;54.604;18.226;2022-12-29T02:23:58;8.10;99.90
17405;DHT22;8820;54.604;18.226;2022-12-29T02:26:41;8.10;99.90
17405;DHT22;8820;54.604;18.226;2022-12-29T02:32:21;8.00;99.90
17405;DHT22;8820;54.604;18.226;2022-12-29T02:35:01;8.00;99.90
17405;DHT22;8820;54.604;18.226;2022-12-29T02:37:41;8.00;99.90
17405;DHT22;8820;54.604;18.226;2022-12-29T02:40:17;8.10;99.90
17405;DHT22;8820;54.604;18.226;2022-12-29T02:42:50;8.00;99.90
17405;DHT22;8820;54.604;18.226;2022-12-29T02:45:26;8.00;99.90
17405;DHT22;8820;54.604;18.226;2022-12-29T02:48:03;8.00;99.90
17405;DHT22;8820;54.604;18.226;2022-12-29T02:50:36;8.00;99.90
17405;DHT22;8820;54.604;18.226;2022-12-29T02:53:09;8.00;99.90
17405;DHT22;8820;54.604;18.226;2022-12-29T02:55:46;8.00;99.90
17405;DHT22;8820;54.604;18.226;2022-12-29T02:58:19;8.00;99.90
17405;DHT22;8820;54.604;18.226;2022-12-29T03:01:03;8.00;99.90
17405;DHT22;8820;54.604;18.226;2022-12-29T03:03:47;8.00;99.90
17405;DHT22;8820;54.604;18.226;2022-12-29T03:06:30;8.00;99.90
17405;DHT22;8820;54.604;18.226;2022-12-29T03:09:05;8.10;99.90
17405;DHT22;8820;54.604;18.226;2022-12-29T03:11:50;8.10;99.90
17405;DHT22;8820;54.604;18.226;2022-12-29T03:14:48;8.10;99.90
17405;DHT22;8820;54.604;18.226;2022-12-29T03:17:45;8.20;99.90
17405;DHT22;8820;54.604;18.226;2022-12-29T03:20:20;8.30;99.90
17405;DHT22;8820;54.604;18.226;2022-12-29T03:22:58;8.10;99.90
17405;DHT22;8820;54.604;18.226;2022-12-29T03:25:33;8.10;99.90
17405;DHT22;8820;54.604;18.226;2022-12-29T03:28:09;8.00;99.90
17405;DHT22;8820;54.604;18.226;2022-12-29T03:30:44;8.00;99.90
17405;DHT22;8820;54.604;18.226;2022-12-29T03:33:21;8.00;99.90
17405;DHT22;8820;54.604;18.226;2022-12-29T03:35:55;8.00;99.90
17405;DHT22;8820;54.604;18.226;2022-12-29T03:38:34;8.00;99.90
17405;DHT22;8820;54.604;18.226;2022-12-29T03:41:07;7.90;99.90
17405;DHT22;8820;54.604;18.226;2022-12-29T03:43:37;7.90;99.90
17405;DHT22;8820;54.604;18.226;2022-12-29T03:46:06;7.90;99.90
17405;DHT22;8820;54.604;18.226;2022-12-29T03:48:38;7.90;99.90
17405;DHT22;8820;54.604;18.226;2022-12-29T03:51:09;7.90;99.90
17405;DHT22;8820;54.604;18.226;2022-12-29T03:53:39;8.00;99.90
17405;DHT22;8820;54.604;18.226;2022-12-29T03:56:08;8.00;99.90
17405;DHT22;8820;54.604;18.226;2022-12-29T03:58:37;7.90;99.90
17405;DHT22;8820;54.604;18.226;2022-12-29T04:01:13;7.90;99.90
17405;DHT22;8820;54.604;18.226;2022-12-29T04:03:43;7.80;99.90
17405;DHT22;8820;54.604;18.226;2022-12-29T04:06:13;7.90;99.90
17405;DHT22;8820;54.604;18.226;2022-12-29T04:08:49;7.90;99.90
17405;DHT22;8820;54.604;18.226;2022-12-29T04:11:18;7.90;99.90
17405;DHT22;8820;54.604;18.226;2022-12-29T04:13:47;7.90;99.90
17405;DHT22;8820;54.604;18.226;2022-12-29T04:16:20;8.00;99.90
17405;DHT22;8820;54.604;18.226;2022-12-29T04:18:50;8.00;99.90
17405;DHT22;8820;54.604;18.226;2022-12-29T04:21:20;7.90;99.90
17405;DHT22;8820;54.604;18.226;2022-12-29T04:23:49;7.90;99.90
17405;DHT22;8820;54.604;18.226;2022-12-29T04:26:18;7.90;99.90
17405;DHT22;8820;54.604;18.226;2022-12-29T04:29:13;8.00;99.90
17405;DHT22;8820;54.604;18.226;2022-12-29T04:31:50;7.90;99.90
17405;DHT22;8820;54.604;18.226;2022-12-29T04:34:19;8.00;99.90
17405;DHT22;8820;54.604;18.226;2022-12-29T04:36:50;7.90;99.90
17405;DHT22;8820;54.604;18.226;2022-12-29T04:39:19;7.90;99.90
17405;DHT22;8820;54.604;18.226;2022-12-29T04:41:48;7.90;99.90
17405;DHT22;8820;54.604;18.226;2022-12-29T04:44:20;7.90;99.90
17405;DHT22;8820;54.604;18.226;2022-12-29T04:47:09;7.90;99.90
17405;DHT22;8820;54.604;18.226;2022-12-29T04:49:50;7.90;99.90
17405;DHT22;8820;54.604;18.226;2022-12-29T04:52:50;8.00;99.90
17405;DHT22;8820;54.604;18.226;2022-12-29T04:55:19;8.00;99.90
17405;DHT22;8820;54.604;18.226;2022-12-29T04:57:49;8.00;99.90
17405;DHT22;8820;54.604;18.226;2022-12-29T05:00:19;8.00;99.90
17405;DHT22;8820;54.604;18.226;2022-12-29T05:02:48;8.00;99.90
17405;DHT22;8820;54.604;18.226;2022-12-29T05:05:18;8.00;99.90
17405;DHT22;8820;54.604;18.226;2022-12-29T05:07:51;8.00;99.90
17405;DHT22;8820;54.604;18.226;2022-12-29T05:10:20;8.00;99.90
17405;DHT22;8820;54.604;18.226;2022-12-29T05:12:51;7.90;99.90
17405;DHT22;8820;54.604;18.226;2022-12-29T05:15:20;8.00;99.90
17405;DHT22;8820;54.604;18.226;2022-12-29T05:17:50;8.00;99.90
17405;DHT22;8820;54.604;18.226;2022-12-29T05:20:19;8.00;99.90
17405;DHT22;8820;54.604;18.226;2022-12-29T05:22:49;8.00;99.90
17405;DHT22;8820;54.604;18.226;2022-12-29T05:25:18;8.00;99.90
17405;DHT22;8820;54.604;18.226;2022-12-29T05:27:55;8.00;99.90
17405;DHT22;8820;54.604;18.226;2022-12-29T05:30:44;7.90;99.90
17405;DHT22;8820;54.604;18.226;2022-12-29T05:33:17;8.00;99.90
17405;DHT22;8820;54.604;18.226;2022-12-29T05:35:48;8.00;99.90
17405;DHT22;8820;54.604;18.226;2022-12-29T05:38:22;8.00;99.90
17405;DHT22;8820;54.604;18.226;2022-12-29T05:40:51;8.00;99.90
17405;DHT22;8820;54.604;18.226;2022-12-29T05:43:38;8.00;99.90
17405;DHT22;8820;54.604;18.226;2022-12-29T05:46:27;8.00;99.90
17405;DHT22;8820;54.604;18.226;2022-12-29T05:49:18;8.00;99.90
17405;DHT22;8820;54.604;18.226;2022-12-29T05:52:03;8.00;99.90
17405;DHT22;8820;54.604;18.226;2022-12-29T05:54:34;8.00;99.90
17405;DHT22;8820;54.604;18.226;2022-12-29T05:57:10;8.00;99.90
17405;DHT22;8820;54.604;18.226;2022-12-29T05:59:40;8.00;99.90
17405;DHT22;8820;54.604;18.226;2022-12-29T06:02:10;8.00;99.90
17405;DHT22;8820;54.604;18.226;2022-12-29T06:04:39;8.00;99.90
17405;DHT22;8820;54.604;18.226;2022-12-29T06:07:08;8.10;99.90
17405;DHT22;8820;54.604;18.226;2022-12-29T06:09:43;8.20;99.90
17405;DHT22;8820;54.604;18.226;2022-12-29T06:12:13;8.20;99.90
17405;DHT22;8820;54.604;18.226;2022-12-29T06:14:44;8.20;99.90
17405;DHT22;8820;54.604;18.226;2022-12-29T06:17:13;8.10;99.90
17405;DHT22;8820;54.604;18.226;2022-12-29T06:19:44;8.10;99.90
17405;DHT22;8820;54.604;18.226;2022-12-29T06:22:13;8.10;99.90
17405;DHT22;8820;54.604;18.226;2022-12-29T06:24:44;8.10;99.90
17405;DHT22;8820;54.604;18.226;2022-12-29T06:27:13;8.10;99.90
17405;DHT22;8820;54.604;18.226;2022-12-29T06:29:42;8.00;99.90
17405;DHT22;8820;54.604;18.226;2022-12-29T06:32:11;8.00;99.90
17405;DHT22;8820;54.604;18.226;2022-12-29T06:34:46;8.00;99.90
17405;DHT22;8820;54.604;18.226;2022-12-29T06:37:15;8.00;99.90
17405;DHT22;8820;54.604;18.226;2022-12-29T06:39:45;8.00;99.90
17405;DHT22;8820;54.604;18.226;2022-12-29T06:42:14;8.00;99.90
17405;DHT22;8820;54.604;18.226;2022-12-29T06:44:50;8.00;99.90
17405;DHT22;8820;54.604;18.226;2022-12-29T06:47:19;8.10;99.90
17405;DHT22;8820;54.604;18.226;2022-12-29T06:49:48;8.10;99.90
17405;DHT22;8820;54.604;18.226;2022-12-29T06:52:17;8.10;99.90
17405;DHT22;8820;54.604;18.226;2022-12-29T06:54:47;8.00;99.90
17405;DHT22;8820;54.604;18.226;2022-12-29T06:57:16;8.00;99.90
17405;DHT22;8820;54.604;18.226;2022-12-29T06:59:45;8.00;99.90
17405;DHT22;8820;54.604;18.226;2022-12-29T07:02:14;8.00;99.90
17405;DHT22;8820;54.604;18.226;2022-12-29T07:04:45;8.00;99.90
17405;DHT22;8820;54.604;18.226;2022-12-29T07:07:14;8.00;99.90
17405;DHT22;8820;54.604;18.226;2022-12-29T07:09:43;8.00;99.90
17405;DHT22;8820;54.604;18.226;2022-12-29T07:12:13;8.20;99.90
17405;DHT22;8820;54.604;18.226;2022-12-29T07:14:42;8.20;99.90
17405;DHT22;8820;54.604;18.226;2022-12-29T07:17:11;8.30;99.90
17405;DHT22;8820;54.604;18.226;2022-12-29T07:19:40;8.20;99.90
17405;DHT22;8820;54.604;18.226;2022-12-29T07:22:10;8.20;99.90
17405;DHT22;8820;54.604;18.226;2022-12-29T07:24:39;8.30;99.90
17405;DHT22;8820;54.604;18.226;2022-12-29T07:27:07;8.30;99.90
17405;DHT22;8820;54.604;18.226;2022-12-29T07:29:38;8.30;99.90
17405;DHT22;8820;54.604;18.226;2022-12-29T07:32:07;8.30;99.90
17405;DHT22;8820;54.604;18.226;2022-12-29T07:34:36;8.30;99.90
17405;DHT22;8820;54.604;18.226;2022-12-29T07:37:06;8.30;99.90
17405;DHT22;8820;54.604;18.226;2022-12-29T07:39:35;8.40;99.90
17405;DHT22;8820;54.604;18.226;2022-12-29T07:42:04;8.40;99.90
17405;DHT22;8820;54.604;18.226;2022-12-29T07:44:46;8.20;99.90
17405;DHT22;8820;54.604;18.226;2022-12-29T07:47:26;8.30;99.90
17405;DHT22;8820;54.604;18.226;2022-12-29T07:49:55;8.20;99.90
17405;DHT22;8820;54.604;18.226;2022-12-29T07:52:24;8.30;99.90
17405;DHT22;8820;54.604;18.226;2022-12-29T07:54:53;8.20;99.90
17405;DHT22;8820;54.604;18.226;2022-12-29T07:57:21;8.10;99.90
17405;DHT22;8820;54.604;18.226;2022-12-29T07:59:59;8.20;99.90
17405;DHT22;8820;54.604;18.226;2022-12-29T08:02:38;8.20;99.90
17405;DHT22;8820;54.604;18.226;2022-12-29T08:05:07;8.30;99.90
17405;DHT22;8820;54.604;18.226;2022-12-29T08:07:36;8.40;99.90
17405;DHT22;8820;54.604;18.226;2022-12-29T08:10:06;8.50;99.90
17405;DHT22;8820;54.604;18.226;2022-12-29T08:12:35;8.50;99.90
17405;DHT22;8820;54.604;18.226;2022-12-29T08:15:06;8.50;99.90
17405;DHT22;8820;54.604;18.226;2022-12-29T08:17:36;8.50;99.90
17405;DHT22;8820;54.604;18.226;2022-12-29T08:20:06;8.50;99.90
17405;DHT22;8820;54.604;18.226;2022-12-29T08:22:35;8.50;99.90
17405;DHT22;8820;54.604;18.226;2022-12-29T08:25:04;8.60;99.90
17405;DHT22;8820;54.604;18.226;2022-12-29T08:27:33;8.50;99.90
17405;DHT22;8820;54.604;18.226;2022-12-29T08:30:05;8.50;99.90
17405;DHT22;8820;54.604;18.226;2022-12-29T08:32:34;8.50;99.90
17405;DHT22;8820;54.604;18.226;2022-12-29T08:35:03;8.50;99.90
17405;DHT22;8820;54.604;18.226;2022-12-29T08:37:32;8.70;99.90
17405;DHT22;8820;54.604;18.226;2022-12-29T08:40:01;8.80;99.90
17405;DHT22;8820;54.604;18.226;2022-12-29T08:42:31;8.90;99.90
17405;DHT22;8820;54.604;18.226;2022-12-29T08:45:00;9.00;99.90
17405;DHT22;8820;54.604;18.226;2022-12-29T08:47:31;9.00;99.90
17405;DHT22;8820;54.604;18.226;2022-12-29T08:50:00;9.10;99.90
17405;DHT22;8820;54.604;18.226;2022-12-29T08:52:29;9.00;99.90
17405;DHT22;8820;54.604;18.226;2022-12-29T08:54:58;8.90;99.90
17405;DHT22;8820;54.604;18.226;2022-12-29T08:57:30;8.90;99.90
17405;DHT22;8820;54.604;18.226;2022-12-29T09:00:13;8.90;99.90
17405;DHT22;8820;54.604;18.226;2022-12-29T09:02:44;8.90;99.90
17405;DHT22;8820;54.604;18.226;2022-12-29T09:05:14;9.00;99.90
17405;DHT22;8820;54.604;18.226;2022-12-29T09:07:42;9.00;99.90
17405;DHT22;8820;54.604;18.226;2022-12-29T09:10:11;9.00;99.90
17405;DHT22;8820;54.604;18.226;2022-12-29T09:12:40;9.10;99.90
17405;DHT22;8820;54.604;18.226;2022-12-29T09:15:09;9.00;99.90
17405;DHT22;8820;54.604;18.226;2022-12-29T09:17:39;9.00;99.90
17405;DHT22;8820;54.604;18.226;2022-12-29T09:20:15;9.00;99.90
17405;DHT22;8820;54.604;18.226;2022-12-29T09:22:44;8.90;99.90
17405;DHT22;8820;54.604;18.226;2022-12-29T09:25:14;8.90;99.90
17405;DHT22;8820;54.604;18.226;2022-12-29T09:27:43;9.00;99.90
17405;DHT22;8820;54.604;18.226;2022-12-29T09:30:13;9.00;99.90
17405;DHT22;8820;54.604;18.226;2022-12-29T09:32:42;9.00;99.90
17405;DHT22;8820;54.604;18.226;2022-12-29T09:35:14;9.10;99.90
17405;DHT22;8820;54.604;18.226;2022-12-29T09:37:43;9.00;99.90
17405;DHT22;8820;54.604;18.226;2022-12-29T09:40:24;9.10;99.90
17405;DHT22;8820;54.604;18.226;2022-12-29T09:43:05;9.20;99.90
17405;DHT22;8820;54.604;18.226;2022-12-29T09:45:40;9.20;99.90
17405;DHT22;8820;54.604;18.226;2022-12-29T09:48:14;9.20;99.90
17405;DHT22;8820;54.604;18.226;2022-12-29T09:50:50;9.30;99.90
17405;DHT22;8820;54.604;18.226;2022-12-29T09:53:25;9.40;99.90
17405;DHT22;8820;54.604;18.226;2022-12-29T09:55:57;9.50;99.90
17405;DHT22;8820;54.604;18.226;2022-12-29T09:58:29;9.40;99.90
17405;DHT22;8820;54.604;18.226;2022-12-29T10:01:03;9.50;99.90
17405;DHT22;8820;54.604;18.226;2022-12-29T10:03:40;9.50;99.90
17405;DHT22;8820;54.604;18.226;2022-12-29T10:06:17;9.50;99.90
17405;DHT22;8820;54.604;18.226;2022-12-29T10:08:50;9.60;99.90
17405;DHT22;8820;54.604;18.226;2022-12-29T10:11:33;9.60;99.90
17405;DHT22;8820;54.604;18.226;2022-12-29T10:14:16;9.70;99.90
17405;DHT22;8820;54.604;18.226;2022-12-29T10:16:51;9.60;99.90
17405;DHT22;8820;54.604;18.226;2022-12-29T10:19:46;9.60;99.90
17405;DHT22;8820;54.604;18.226;2022-12-29T10:22:28;9.60;99.90
17405;DHT22;8820;54.604;18.226;2022-12-29T10:25:01;9.70;99.90
17405;DHT22;8820;54.604;18.226;2022-12-29T10:27:32;9.80;99.90
17405;DHT22;8820;54.604;18.226;2022-12-29T10:30:02;9.80;99.90
17405;DHT22;8820;54.604;18.226;2022-12-29T10:32:34;9.90;99.90
17405;DHT22;8820;54.604;18.226;2022-12-29T10:35:10;10.00;99.90
17405;DHT22;8820;54.604;18.226;2022-12-29T10:37:47;10.00;99.90
17405;DHT22;8820;54.604;18.226;2022-12-29T10:40:24;10.00;99.90
17405;DHT22;8820;54.604;18.226;2022-12-29T10:42:56;10.10;99.90
17405;DHT22;8820;54.604;18.226;2022-12-29T10:45:29;10.10;99.90
17405;DHT22;8820;54.604;18.226;2022-12-29T10:48:03;10.10;99.90
17405;DHT22;8820;54.604;18.226;2022-12-29T10:50:32;10.00;99.90
17405;DHT22;8820;54.604;18.226;2022-12-29T10:53:05;10.10;99.90
17405;DHT22;8820;54.604;18.226;2022-12-29T10:55:35;10.10;99.90
17405;DHT22;8820;54.604;18.226;2022-12-29T10:58:06;10.20;99.90
17405;DHT22;8820;54.604;18.226;2022-12-29T11:00:37;10.20;99.90
17405;DHT22;8820;54.604;18.226;2022-12-29T11:06:21;10.20;99.90
17405;DHT22;8820;54.604;18.226;2022-12-29T11:08:54;10.10;99.90
17405;DHT22;8820;54.604;18.226;2022-12-29T11:11:27;10.10;99.90
17405;DHT22;8820;54.604;18.226;2022-12-29T11:13:58;10.00;99.90
17405;DHT22;8820;54.604;18.226;2022-12-29T11:16:29;10.00;99.90
17405;DHT22;8820;54.604;18.226;2022-12-29T11:18:59;10.00;99.90
17405;DHT22;8820;54.604;18.226;2022-12-29T11:21:33;9.90;99.90
17405;DHT22;8820;54.604;18.226;2022-12-29T11:24:19;9.90;99.90
17405;DHT22;8820;54.604;18.226;2022-12-29T11:26:50;10.00;99.90
17405;DHT22;8820;54.604;18.226;2022-12-29T11:29:26;10.10;99.90
17405;DHT22;8820;54.604;18.226;2022-12-29T11:31:57;10.10;99.90
17405;DHT22;8820;54.604;18.226;2022-12-29T11:34:31;9.90;99.90
17405;DHT22;8820;54.604;18.226;2022-12-29T11:37:04;9.90;99.90
17405;DHT22;8820;54.604;18.226;2022-12-29T11:39:39;9.90;99.90
17405;DHT22;8820;54.604;18.226;2022-12-29T11:42:14;9.90;99.90
17405;DHT22;8820;54.604;18.226;2022-12-29T11:44:45;10.00;99.90
17405;DHT22;8820;54.604;18.226;2022-12-29T11:47:23;10.00;99.90
17405;DHT22;8820;54.604;18.226;2022-12-29T11:49:56;10.10;99.90
17405;DHT22;8820;54.604;18.226;2022-12-29T11:52:28;10.10;99.90
17405;DHT22;8820;54.604;18.226;2022-12-29T11:55:01;10.20;99.90
17405;DHT22;8820;54.604;18.226;2022-12-29T11:57:33;10.20;99.90
17405;DHT22;8820;54.604;18.226;2022-12-29T12:00:14;10.20;99.90
17405;DHT22;8820;54.604;18.226;2022-12-29T12:02:53;10.10;99.90
17405;DHT22;8820;54.604;18.226;2022-12-29T12:05:31;10.10;99.90
17405;DHT22;8820;54.604;18.226;2022-12-29T12:08:11;10.20;99.90
17405;DHT22;8820;54.604;18.226;2022-12-29T12:10:52;10.30;99.90
17405;DHT22;8820;54.604;18.226;2022-12-29T12:13:29;10.20;99.90
17405;DHT22;8820;54.604;18.226;2022-12-29T12:16:06;10.30;99.90
17405;DHT22;8820;54.604;18.226;2022-12-29T12:18:41;10.30;99.90
17405;DHT22;8820;54.604;18.226;2022-12-29T12:21:18;10.20;99.90
17405;DHT22;8820;54.604;18.226;2022-12-29T12:24:10;10.30;99.90
17405;DHT22;8820;54.604;18.226;2022-12-29T12:26:54;10.20;99.90
17405;DHT22;8820;54.604;18.226;2022-12-29T12:29:27;10.20;99.90
17405;DHT22;8820;54.604;18.226;2022-12-29T12:32:01;10.20;99.90
17405;DHT22;8820;54.604;18.226;2022-12-29T12:34:33;10.30;99.90
17405;DHT22;8820;54.604;18.226;2022-12-29T12:37:33;10.30;99.90
17405;DHT22;8820;54.604;18.226;2022-12-29T12:40:29;10.30;99.90
17405;DHT22;8820;54.604;18.226;2022-12-29T12:43:16;10.30;99.90
17405;DHT22;8820;54.604;18.226;2022-12-29T12:45:55;10.40;99.90
17405;DHT22;8820;54.604;18.226;2022-12-29T12:48:44;10.40;99.90
17405;DHT22;8820;54.604;18.226;2022-12-29T12:51:23;10.40;99.90
17405;DHT22;8820;54.604;18.226;2022-12-29T12:54:10;10.40;99.90
17405;DHT22;8820;54.604;18.226;2022-12-29T12:56:58;10.50;99.90
17405;DHT22;8820;54.604;18.226;2022-12-29T12:59:48;10.50;99.90
17405;DHT22;8820;54.604;18.226;2022-12-29T13:02:31;10.50;99.90
17405;DHT22;8820;54.604;18.226;2022-12-29T13:05:26;10.50;99.90
17405;DHT22;8820;54.604;18.226;2022-12-29T13:08:26;10.50;99.90
17405;DHT22;8820;54.604;18.226;2022-12-29T13:11:08;10.50;99.90
17405;DHT22;8820;54.604;18.226;2022-12-29T13:14:08;10.60;99.90
17405;DHT22;8820;54.604;18.226;2022-12-29T13:16:44;10.50;99.90
17405;DHT22;8820;54.604;18.226;2022-12-29T13:19:21;10.50;99.90
17405;DHT22;8820;54.604;18.226;2022-12-29T13:22:00;10.60;99.90
17405;DHT22;8820;54.604;18.226;2022-12-29T13:24:44;10.60;99.90
17405;DHT22;8820;54.604;18.226;2022-12-29T13:27:19;10.60;99.90
17405;DHT22;8820;54.604;18.226;2022-12-29T13:29:54;10.60;99.90
17405;DHT22;8820;54.604;18.226;2022-12-29T13:32:35;10.50;99.90
17405;DHT22;8820;54.604;18.226;2022-12-29T13:35:17;10.50;99.90
17405;DHT22;8820;54.604;18.226;2022-12-29T13:37:54;10.50;99.90
17405;DHT22;8820;54.604;18.226;2022-12-29T13:40:27;10.50;99.90
17405;DHT22;8820;54.604;18.226;2022-12-29T13:42:57;10.50;99.90
17405;DHT22;8820;54.604;18.226;2022-12-29T13:45:29;10.50;99.90
17405;DHT22;8820;54.604;18.226;2022-12-29T13:48:05;10.50;99.90
17405;DHT22;8820;54.604;18.226;2022-12-29T13:50:38;10.40;99.90
17405;DHT22;8820;54.604;18.226;2022-12-29T13:53:14;10.40;99.90
17405;DHT22;8820;54.604;18.226;2022-12-29T13:55:53;10.40;99.90
17405;DHT22;8820;54.604;18.226;2022-12-29T13:58:30;10.50;99.90
17405;DHT22;8820;54.604;18.226;2022-12-29T14:01:07;10.40;99.90
17405;DHT22;8820;54.604;18.226;2022-12-29T14:03:46;10.40;99.90
17405;DHT22;8820;54.604;18.226;2022-12-29T14:06:24;10.50;99.90
17405;DHT22;8820;54.604;18.226;2022-12-29T14:08:55;10.50;99.90
17405;DHT22;8820;54.604;18.226;2022-12-29T14:11:31;10.40;99.90
17405;DHT22;8820;54.604;18.226;2022-12-29T14:14:11;10.40;99.90
17405;DHT22;8820;54.604;18.226;2022-12-29T14:16:41;10.50;99.90
17405;DHT22;8820;54.604;18.226;2022-12-29T14:19:16;10.40;99.90
17405;DHT22;8820;54.604;18.226;2022-12-29T14:21:53;10.40;99.90
17405;DHT22;8820;54.604;18.226;2022-12-29T14:24:43;10.40;99.90
17405;DHT22;8820;54.604;18.226;2022-12-29T14:27:43;10.40;99.90
17405;DHT22;8820;54.604;18.226;2022-12-29T14:30:47;10.40;99.90
17405;DHT22;8820;54.604;18.226;2022-12-29T14:33:17;10.40;99.90
17405;DHT22;8820;54.604;18.226;2022-12-29T14:35:49;10.40;99.90
17405;DHT22;8820;54.604;18.226;2022-12-29T14:38:27;10.40;99.90
17405;DHT22;8820;54.604;18.226;2022-12-29T14:41:28;10.40;99.90
17405;DHT22;8820;54.604;18.226;2022-12-29T14:44:10;10.30;99.90
17405;DHT22;8820;54.604;18.226;2022-12-29T14:46:55;10.40;99.90
17405;DHT22;8820;54.604;18.226;2022-12-29T14:49:28;10.30;99.90
17405;DHT22;8820;54.604;18.226;2022-12-29T14:52:13;10.30;99.90
17405;DHT22;8820;54.604;18.226;2022-12-29T14:54:48;10.40;99.90
17405;DHT22;8820;54.604;18.226;2022-12-29T14:57:30;10.30;99.90
17405;DHT22;8820;54.604;18.226;2022-12-29T15:00:17;10.30;99.90
17405;DHT22;8820;54.604;18.226;2022-12-29T15:02:49;10.30;99.90
17405;DHT22;8820;54.604;18.226;2022-12-29T15:05:32;10.30;99.90
17405;DHT22;8820;54.604;18.226;2022-12-29T15:08:05;10.20;99.90
17405;DHT22;8820;54.604;18.226;2022-12-29T15:10:38;10.20;99.90
17405;DHT22;8820;54.604;18.226;2022-12-29T15:13:15;10.30;99.90
17405;DHT22;8820;54.604;18.226;2022-12-29T15:15:45;10.20;99.90
17405;DHT22;8820;54.604;18.226;2022-12-29T15:18:22;10.20;99.90
17405;DHT22;8820;54.604;18.226;2022-12-29T15:20:53;10.30;99.90
17405;DHT22;8820;54.604;18.226;2022-12-29T15:23:24;10.30;99.90
17405;DHT22;8820;54.604;18.226;2022-12-29T15:25:55;10.30;99.90
17405;DHT22;8820;54.604;18.226;2022-12-29T15:28:26;10.30;99.90
17405;DHT22;8820;54.604;18.226;2022-12-29T15:31:02;10.40;99.90
17405;DHT22;8820;54.604;18.226;2022-12-29T15:33:38;10.40;99.90
17405;DHT22;8820;54.604;18.226;2022-12-29T15:36:11;10.40;99.90
17405;DHT22;8820;54.604;18.226;2022-12-29T15:38:42;10.40;99.90
17405;DHT22;8820;54.604;18.226;2022-12-29T15:41:22;10.40;99.90
17405;DHT22;8820;54.604;18.226;2022-12-29T15:43:58;10.40;99.90
17405;DHT22;8820;54.604;18.226;2022-12-29T15:46:30;10.40;99.90
17405;DHT22;8820;54.604;18.226;2022-12-29T15:48:59;10.40;99.90
17405;DHT22;8820;54.604;18.226;2022-12-29T15:51:35;10.40;99.90
17405;DHT22;8820;54.604;18.226;2022-12-29T15:54:12;10.50;99.90
17405;DHT22;8820;54.604;18.226;2022-12-29T15:56:44;10.50;99.90
17405;DHT22;8820;54.604;18.226;2022-12-29T15:59:24;10.60;99.90
17405;DHT22;8820;54.604;18.226;2022-12-29T16:01:54;10.60;99.90
17405;DHT22;8820;54.604;18.226;2022-12-29T16:04:27;10.60;99.90
17405;DHT22;8820;54.604;18.226;2022-12-29T16:06:58;10.60;99.90
17405;DHT22;8820;54.604;18.226;2022-12-29T16:09:33;10.60;99.90
17405;DHT22;8820;54.604;18.226;2022-12-29T16:12:04;10.60;99.90
17405;DHT22;8820;54.604;18.226;2022-12-29T16:14:41;10.60;99.90
17405;DHT22;8820;54.604;18.226;2022-12-29T16:17:13;10.60;99.90
17405;DHT22;8820;54.604;18.226;2022-12-29T16:19:50;10.60;99.90
17405;DHT22;8820;54.604;18.226;2022-12-29T16:22:25;10.70;99.90
17405;DHT22;8820;54.604;18.226;2022-12-29T16:24:58;10.60;99.90
17405;DHT22;8820;54.604;18.226;2022-12-29T16:27:36;10.70;99.90
17405;DHT22;8820;54.604;18.226;2022-12-29T16:30:16;10.60;99.90
17405;DHT22;8820;54.604;18.226;2022-12-29T16:32:46;10.70;99.90
17405;DHT22;8820;54.604;18.226;2022-12-29T16:35:18;10.60;99.90
17405;DHT22;8820;54.604;18.226;2022-12-29T16:37:47;10.70;99.90